Airfield :
LOGIN :

Register | Disclaimer

   EN    FR    IT 

 










Legend :    VFR   Marginal VFR   IFR   Intensive IFR   Very Intensive IFR
Visi :
Ceiling :
>= 8 km
>= 3000ft
5 to 8 km
1000 to 3000 ft
1500m to 5 km
500 to 1000 ft
800 to 1500m
200 to 500 ft
< 800m
< 200 ft
Symbols :   Thunderstorms  Fog  Heavy snow  Heavy precipitations  Wind > 20 kt
SIGMETs :     Misc.  Thunderstorms  Icing  Turbulence  Mountain Waves  Volcanic Ashes







- Airport Elevation : 125 ft
- IATA code : MGL


EDLN - Mönchengladbach

CURRENT METAR :
  • 160850Z 28005KT 7000 NSC 02/02 Q1009

EXPIRED METARs :
  • 160820Z 28005KT 5000 BR FEW040 02/02 Q1009
  • 160750Z 29004KT 6000 FEW010 02/01 Q1008
  • 160720Z 27004KT 4000 BR FEW005 02/02 Q1008
  • 160650Z 29006KT 5000 BR SCT005 SCT040 02/02 Q1008

TAF TAF EDLN
Valid from the 16 at 09:00 until the 16 at 18:00 UTC


160800Z 1609/1618 28007KT 8000 SCT020
TEMPO 1611/1615 3500 -SHRASN BKN008 BKN012TCU
No reported NOTAMs for that airfield.



MET'MAP, your aeronautical weather chart ! - Copyright ORBIFLY December 2007 - Disclaimer

ORBIFLY MET'MAP TEAM :

Programming & Development : Alexandra Zaïnal
Concept & Development : Baudouin d'Aumeries
Co-Development & Prog : Marc-Olivier Méhu
Technical & hardware support : Manuel Goepfert

Contact : metmap@orbifly.com




SOURCES & CREDITS :

   NOAA